createdAt,value
2023-02-20T00:00:34.695Z,72.23
2023-02-20T00:03:01.535Z,70.85
2023-02-20T00:05:28.155Z,70.48
2023-02-20T00:07:54.820Z,71.21
2023-02-20T00:10:21.633Z,70.81
2023-02-20T00:12:48.365Z,71.12
2023-02-20T00:15:16.563Z,71.99
2023-02-20T00:17:44.574Z,72.32
2023-02-20T00:20:11.866Z,71.51
2023-02-20T00:22:38.579Z,71.52
2023-02-20T00:25:05.352Z,72.17
2023-02-20T00:27:31.992Z,71.60
2023-02-20T00:29:58.653Z,70.71
2023-02-20T00:32:25.422Z,71.44
2023-02-20T00:34:52.924Z,71.71
2023-02-20T00:37:19.598Z,71.08
2023-02-20T00:39:46.189Z,70.58
2023-02-20T00:42:13.062Z,71.51
2023-02-20T00:44:39.635Z,71.70
2023-02-20T00:47:06.413Z,72.94
2023-02-20T00:49:33.103Z,73.22
2023-02-20T00:52:09.525Z,73.21
2023-02-20T00:54:36.216Z,71.23
2023-02-20T00:57:02.841Z,70.69
2023-02-20T00:59:29.572Z,71.56
2023-02-20T01:01:56.298Z,72.23
2023-02-20T01:04:23.015Z,72.20
2023-02-20T01:06:49.755Z,72.90
2023-02-20T01:09:16.540Z,72.75
2023-02-20T01:11:45.620Z,72.27
2023-02-20T01:14:13.606Z,72.10
2023-02-20T01:16:48.336Z,70.90
2023-02-20T01:19:15.279Z,71.57
2023-02-20T01:21:42.039Z,72.71
2023-02-20T01:24:09.423Z,72.04
2023-02-20T01:26:36.467Z,70.66
2023-02-20T01:29:04.642Z,71.67
2023-02-20T01:31:31.402Z,71.81
2023-02-20T01:33:59.395Z,71.42
2023-02-20T01:36:27.493Z,70.92
2023-02-20T01:38:54.451Z,72.66
2023-02-20T01:41:23.347Z,71.55
2023-02-20T01:43:50.074Z,70.75
2023-02-20T01:46:29.088Z,72.66
2023-02-20T01:49:02.300Z,72.67
2023-02-20T01:51:35.211Z,73.29
2023-02-20T01:54:03.301Z,74.37
2023-02-20T01:56:32.150Z,74.20
2023-02-20T01:58:59.014Z,72.76
2023-02-20T02:01:25.704Z,72.03
2023-02-20T02:04:00.163Z,71.98
2023-02-20T02:06:28.532Z,72.36
2023-02-20T02:08:59.138Z,71.64
2023-02-20T02:11:27.648Z,72.13
2023-02-20T02:13:55.776Z,72.59
2023-02-20T02:16:45.552Z,72.55
2023-02-20T02:19:50.693Z,72.44
2023-02-20T02:22:49.439Z,73.07
2023-02-20T02:25:32.911Z,73.31
2023-02-20T02:28:22.893Z,72.42
2023-02-20T02:31:23.712Z,72.69
2023-02-20T02:33:53.164Z,71.69
2023-02-20T02:36:50.629Z,72.39
2023-02-20T02:39:20.283Z,72.18
2023-02-20T02:42:04.154Z,72.35
2023-02-20T02:44:39.735Z,72.23
2023-02-20T02:47:11.678Z,72.04
2023-02-20T02:49:48.427Z,70.93
2023-02-20T02:52:36.281Z,72.16
2023-02-20T02:55:03.585Z,72.90
2023-02-20T02:57:32.285Z,71.99
2023-02-20T03:00:26.791Z,72.34
2023-02-20T03:02:59.524Z,71.16
2023-02-20T03:05:40.263Z,71.41
2023-02-20T03:08:31.417Z,71.08
2023-02-20T03:11:05.547Z,71.85
2023-02-20T03:13:58.649Z,71.76
2023-02-20T03:16:32.474Z,73.64
2023-02-20T03:19:02.757Z,72.35
2023-02-20T03:21:32.655Z,71.28
2023-02-20T03:24:01.860Z,71.50
2023-02-20T03:26:37.856Z,72.02
2023-02-20T03:29:15.737Z,71.83
2023-02-20T03:32:11.292Z,72.52
2023-02-20T03:34:58.985Z,73.13
2023-02-20T03:37:46.935Z,72.58
2023-02-20T03:40:35.112Z,72.15
2023-02-20T03:43:21.844Z,72.35
2023-02-20T03:45:49.892Z,71.85
2023-02-20T03:48:40.473Z,72.53
2023-02-20T03:51:11.581Z,71.71
2023-02-20T03:53:48.439Z,71.72
2023-02-20T03:56:31.552Z,73.81
2023-02-20T03:59:06.496Z,74.01
2023-02-20T04:01:37.474Z,72.67
2023-02-20T04:04:07.051Z,73.20
2023-02-20T04:06:36.640Z,73.33
2023-02-20T04:09:14.195Z,71.55
2023-02-20T04:11:52.280Z,72.78
2023-02-20T04:14:22.307Z,73.40
2023-02-20T04:17:00.627Z,73.08
2023-02-20T04:19:27.905Z,71.73
2023-02-20T04:22:03.021Z,72.00
2023-02-20T04:24:41.978Z,72.29
2023-02-20T04:27:09.543Z,73.21
2023-02-20T04:29:41.901Z,73.22
2023-02-20T04:32:08.748Z,72.87
2023-02-20T04:34:37.334Z,72.83
2023-02-20T04:37:13.151Z,72.76
2023-02-20T04:39:40.995Z,74.06
2023-02-20T04:42:07.926Z,72.84
2023-02-20T04:44:35.479Z,72.48
2023-02-20T04:47:07.515Z,73.04
2023-02-20T04:49:35.747Z,72.35
2023-02-20T04:52:05.291Z,72.57
2023-02-20T04:54:32.661Z,72.00
2023-02-20T04:57:00.726Z,73.12
2023-02-20T04:59:27.528Z,73.12
2023-02-20T05:01:54.872Z,71.78
2023-02-20T05:04:22.761Z,72.48
2023-02-20T05:06:52.837Z,72.55
2023-02-20T05:09:20.938Z,73.22
2023-02-20T05:11:47.619Z,73.22
2023-02-20T05:14:14.753Z,73.37
2023-02-20T05:16:42.809Z,73.13
2023-02-20T05:19:09.477Z,74.33
2023-02-20T05:21:54.548Z,75.22
2023-02-20T05:24:21.973Z,74.76
2023-02-20T05:26:48.609Z,76.09
2023-02-20T05:29:15.393Z,74.88
2023-02-20T05:31:42.721Z,75.27
2023-02-20T05:34:09.519Z,75.18
2023-02-20T05:36:36.659Z,75.60
2023-02-20T05:39:04.624Z,76.65
2023-02-20T05:41:32.036Z,76.33
2023-02-20T05:43:59.911Z,77.34
2023-02-20T05:46:27.629Z,77.90
2023-02-20T05:48:55.080Z,78.04
2023-02-20T05:51:23.855Z,78.46
2023-02-20T05:53:50.902Z,78.43
2023-02-20T05:56:18.275Z,78.00
2023-02-20T05:58:45.031Z,78.29
2023-02-20T06:01:24.118Z,77.95
2023-02-20T06:03:51.609Z,78.97
2023-02-20T06:06:19.008Z,78.56
2023-02-20T06:08:46.391Z,78.53
2023-02-20T06:11:14.279Z,79.31
2023-02-20T06:13:45.445Z,79.14
2023-02-20T06:16:13.084Z,79.90
2023-02-20T06:18:41.476Z,80.02
2023-02-20T06:21:09.896Z,80.74
2023-02-20T06:23:38.096Z,80.69
2023-02-20T06:26:06.349Z,81.09
2023-02-20T06:28:33.607Z,81.26
2023-02-20T06:31:02.016Z,81.47
2023-02-20T06:33:29.537Z,81.71
2023-02-20T06:35:56.349Z,81.82
2023-02-20T06:38:24.123Z,82.46
2023-02-20T06:40:51.137Z,82.83
2023-02-20T06:43:17.788Z,82.60
2023-02-20T06:45:45.189Z,82.42
2023-02-20T06:48:11.924Z,83.41
2023-02-20T06:50:38.503Z,82.99
2023-02-20T06:53:05.161Z,82.64
2023-02-20T06:55:32.813Z,83.73
2023-02-20T06:57:59.776Z,83.60
2023-02-20T07:00:26.964Z,83.29
2023-02-20T07:02:53.746Z,83.13
2023-02-20T07:05:20.571Z,83.10
2023-02-20T07:07:47.316Z,83.20
2023-02-20T07:10:13.914Z,82.66
2023-02-20T07:12:40.592Z,83.15
2023-02-20T07:15:08.673Z,83.90
2023-02-20T07:17:35.305Z,84.03
2023-02-20T07:20:02.099Z,84.26
2023-02-20T07:22:28.757Z,84.16
2023-02-20T07:24:55.880Z,83.72
2023-02-20T07:27:22.851Z,83.87
2023-02-20T07:29:51.101Z,84.72
2023-02-20T07:32:20.622Z,84.28
2023-02-20T07:35:01.426Z,83.95
2023-02-20T07:37:31.806Z,84.19
2023-02-20T07:39:58.442Z,85.09
2023-02-20T07:42:25.165Z,85.28
2023-02-20T07:44:59.636Z,85.05
2023-02-20T07:47:26.490Z,84.97
2023-02-20T07:49:53.073Z,84.14
2023-02-20T07:52:19.783Z,84.42
2023-02-20T07:54:46.421Z,84.79
2023-02-20T07:57:15.501Z,84.44
2023-02-20T07:59:42.270Z,84.51
2023-02-20T08:02:08.891Z,84.38
2023-02-20T08:04:35.471Z,84.23
2023-02-20T08:07:02.155Z,84.77
2023-02-20T08:09:28.794Z,85.13
2023-02-20T08:11:55.924Z,84.93
2023-02-20T08:14:22.656Z,84.79
2023-02-20T08:16:49.330Z,84.89
2023-02-20T08:19:16.002Z,85.61
2023-02-20T08:21:42.705Z,85.61
2023-02-20T08:24:09.288Z,85.27
2023-02-20T08:26:42.397Z,85.12
2023-02-20T08:29:09.065Z,85.70
2023-02-20T08:31:35.894Z,85.53
2023-02-20T08:34:02.675Z,85.14
2023-02-20T08:36:29.469Z,84.60
2023-02-20T08:38:57.277Z,84.88
2023-02-20T08:41:24.025Z,84.51
2023-02-20T08:43:50.700Z,84.46
2023-02-20T08:46:17.489Z,84.91
2023-02-20T08:48:45.111Z,84.19
2023-02-20T08:51:11.904Z,83.85
2023-02-20T08:53:39.492Z,84.01
2023-02-20T08:56:07.393Z,83.88
2023-02-20T08:58:34.028Z,84.06
2023-02-20T09:01:00.685Z,84.41
2023-02-20T09:03:27.530Z,84.60
2023-02-20T09:05:54.179Z,85.63
2023-02-20T09:08:20.857Z,85.56
2023-02-20T09:10:48.167Z,85.79
2023-02-20T09:13:15.084Z,87.44
2023-02-20T09:15:41.743Z,88.24
2023-02-20T09:18:13.044Z,89.50
2023-02-20T09:20:41.077Z,89.51
2023-02-20T09:23:08.504Z,88.60
2023-02-20T09:25:36.056Z,89.40
2023-02-20T09:28:02.876Z,88.86
2023-02-20T09:30:29.686Z,88.82
2023-02-20T09:32:56.479Z,89.75
2023-02-20T09:35:29.057Z,89.85
2023-02-20T09:37:56.193Z,90.13
2023-02-20T09:40:29.381Z,90.10
2023-02-20T09:43:33.689Z,90.53
2023-02-20T09:46:06.365Z,89.02
2023-02-20T09:48:38.852Z,89.81
2023-02-20T09:51:11.100Z,89.29
2023-02-20T09:54:03.204Z,88.98
2023-02-20T09:56:34.742Z,89.03
2023-02-20T09:59:16.820Z,89.33
2023-02-20T10:01:58.158Z,89.12
2023-02-20T10:04:37.379Z,88.92
2023-02-20T10:07:17.455Z,88.66
2023-02-20T10:09:44.314Z,88.42
2023-02-20T10:12:15.097Z,88.67
2023-02-20T10:15:06.249Z,88.99
2023-02-20T10:17:39.037Z,88.26
2023-02-20T10:20:20.252Z,88.79
2023-02-20T10:22:58.996Z,87.34
2023-02-20T10:25:31.821Z,87.06
2023-02-20T10:28:09.623Z,85.24
2023-02-20T10:30:54.709Z,84.44
2023-02-20T10:33:29.908Z,84.24
2023-02-20T10:36:08.848Z,84.86
2023-02-20T10:38:50.693Z,83.74
2023-02-20T10:41:23.048Z,83.77
2023-02-20T10:44:05.553Z,83.77
2023-02-20T10:46:48.152Z,84.25
2023-02-20T10:49:29.637Z,83.78
2023-02-20T10:52:01.212Z,84.07
2023-02-20T10:54:36.374Z,83.32
2023-02-20T10:57:08.556Z,83.66
2023-02-20T10:59:50.809Z,82.30
2023-02-20T11:02:23.089Z,82.16
2023-02-20T11:04:57.633Z,81.43
2023-02-20T11:07:24.590Z,81.98
2023-02-20T11:09:51.160Z,81.51
2023-02-20T11:12:48.765Z,81.35
2023-02-20T11:15:29.043Z,79.85
2023-02-20T11:17:56.998Z,78.89
2023-02-20T11:20:32.838Z,78.09
2023-02-20T11:23:01.562Z,77.36
2023-02-20T11:25:38.942Z,77.80
2023-02-20T11:28:20.955Z,77.10
2023-02-20T11:31:02.900Z,77.70
2023-02-20T11:33:48.075Z,76.30
2023-02-20T11:36:22.901Z,76.47
2023-02-20T11:38:57.967Z,77.37
2023-02-20T11:41:32.333Z,76.19
2023-02-20T11:44:35.791Z,75.50
2023-02-20T11:47:31.773Z,75.06
2023-02-20T11:50:19.826Z,74.59
2023-02-20T11:53:04.500Z,73.87
2023-02-20T11:55:32.133Z,75.04
2023-02-20T11:57:58.755Z,74.08
2023-02-20T12:00:47.849Z,74.15
2023-02-20T12:03:21.843Z,75.81
2023-02-20T12:05:49.873Z,72.94
2023-02-20T12:08:37.600Z,72.70
2023-02-20T12:11:15.697Z,73.58
2023-02-20T12:13:44.807Z,73.67
2023-02-20T12:16:39.136Z,74.27
2023-02-20T12:19:16.215Z,73.55
2023-02-20T12:21:45.967Z,72.62
2023-02-20T12:24:51.660Z,72.40
2023-02-20T12:27:43.377Z,71.94
2023-02-20T12:30:44.117Z,71.57
2023-02-20T12:33:40.410Z,72.28
2023-02-20T12:36:27.531Z,71.47
2023-02-20T12:39:02.723Z,71.64
2023-02-20T12:42:06.249Z,71.34
2023-02-20T12:44:57.448Z,70.39
2023-02-20T12:47:45.306Z,70.91
2023-02-20T12:50:36.833Z,70.62
2023-02-20T12:53:31.310Z,70.11
2023-02-20T12:56:21.525Z,70.74
2023-02-20T12:58:58.148Z,69.61
2023-02-20T13:01:38.364Z,69.72
2023-02-20T13:04:19.649Z,69.49
2023-02-20T13:07:03.080Z,68.16
2023-02-20T13:09:36.560Z,68.27
2023-02-20T13:12:11.210Z,68.51
2023-02-20T13:14:56.611Z,67.80
2023-02-20T13:17:32.219Z,67.23
2023-02-20T13:20:21.757Z,66.81
2023-02-20T13:23:06.329Z,67.68
2023-02-20T13:25:39.551Z,66.55
2023-02-20T13:28:12.325Z,67.07
2023-02-20T13:30:40.562Z,66.80
2023-02-20T13:33:22.206Z,64.94
2023-02-20T13:35:56.815Z,66.11
2023-02-20T13:38:26.671Z,65.93
2023-02-20T13:40:56.401Z,65.92
2023-02-20T13:43:23.086Z,65.27
2023-02-20T13:46:17.538Z,66.00
2023-02-20T13:48:49.942Z,65.22
2023-02-20T13:51:16.762Z,64.88
2023-02-20T13:53:49.071Z,63.72
2023-02-20T13:56:17.412Z,64.28
2023-02-20T13:58:45.826Z,65.58
2023-02-20T14:01:12.604Z,64.37
2023-02-20T14:03:39.386Z,64.96
2023-02-20T14:06:09.160Z,65.03
2023-02-20T14:08:38.619Z,64.59
2023-02-20T14:11:07.647Z,64.75
2023-02-20T14:13:40.266Z,65.89
2023-02-20T14:16:32.204Z,65.70
2023-02-20T14:19:02.490Z,65.49
2023-02-20T14:21:30.143Z,64.86
2023-02-20T14:23:57.481Z,66.01
2023-02-20T14:26:31.823Z,65.56
2023-02-20T14:29:00.134Z,65.76
2023-02-20T14:31:33.816Z,65.20
2023-02-20T14:34:21.865Z,65.85
2023-02-20T14:37:16.962Z,64.72
2023-02-20T14:39:58.154Z,65.01
2023-02-20T14:42:25.877Z,64.28
2023-02-20T14:45:00.770Z,64.88
2023-02-20T14:47:27.546Z,64.87
2023-02-20T14:49:54.169Z,65.55
2023-02-20T14:52:24.284Z,65.62
2023-02-20T14:55:06.996Z,65.46
2023-02-20T14:57:34.784Z,65.68
2023-02-20T15:00:16.608Z,65.82
2023-02-20T15:02:48.181Z,65.60
2023-02-20T15:05:21.171Z,65.43
2023-02-20T15:07:48.093Z,64.22
2023-02-20T15:10:32.829Z,64.17
2023-02-20T15:13:07.221Z,64.73
2023-02-20T15:15:44.810Z,64.20
2023-02-20T15:18:17.746Z,63.30
2023-02-20T15:20:49.279Z,64.22
2023-02-20T15:23:16.203Z,62.18
2023-02-20T15:25:44.286Z,62.98
2023-02-20T15:28:19.822Z,64.47
2023-02-20T15:31:06.735Z,63.05
2023-02-20T15:33:39.573Z,63.00
2023-02-20T15:36:07.441Z,63.51
2023-02-20T15:38:35.690Z,64.06
2023-02-20T15:41:04.227Z,64.15
2023-02-20T15:43:47.132Z,64.03
2023-02-20T15:46:17.541Z,63.94
2023-02-20T15:48:44.513Z,64.06
2023-02-20T15:51:12.206Z,65.23
2023-02-20T15:53:39.677Z,64.67
2023-02-20T15:56:06.555Z,65.92
2023-02-20T15:58:38.947Z,66.03
2023-02-20T16:01:06.896Z,66.23
2023-02-20T16:03:45.221Z,67.10
2023-02-20T16:06:17.819Z,67.32
2023-02-20T16:08:45.367Z,67.24
2023-02-20T16:11:12.714Z,68.25
2023-02-20T16:13:43.328Z,68.44
2023-02-20T16:16:25.225Z,67.88
2023-02-20T16:18:55.023Z,68.89
2023-02-20T16:21:23.472Z,69.06
2023-02-20T16:23:50.383Z,68.88
2023-02-20T16:26:19.319Z,69.53
2023-02-20T16:28:59.191Z,69.89
2023-02-20T16:32:00.889Z,69.21
2023-02-20T16:34:33.087Z,68.89
2023-02-20T16:37:01.382Z,68.90
2023-02-20T16:39:27.974Z,69.18
2023-02-20T16:41:57.799Z,69.45
2023-02-20T16:44:40.923Z,69.26
2023-02-20T16:47:18.843Z,69.50
2023-02-20T16:49:46.461Z,69.64
2023-02-20T16:52:37.644Z,70.33
2023-02-20T16:55:28.058Z,70.14
2023-02-20T16:57:55.601Z,70.42
2023-02-20T17:00:27.790Z,70.72
2023-02-20T17:02:55.101Z,70.50
2023-02-20T17:05:25.649Z,70.95
2023-02-20T17:07:52.627Z,71.25
2023-02-20T17:10:19.452Z,72.00
2023-02-20T17:12:46.440Z,71.77
2023-02-20T17:15:16.530Z,71.70
2023-02-20T17:17:43.891Z,71.58
2023-02-20T17:20:15.851Z,71.83
2023-02-20T17:22:44.287Z,72.14
2023-02-20T17:25:16.818Z,72.40
2023-02-20T17:27:43.482Z,72.77
2023-02-20T17:30:10.943Z,72.75
2023-02-20T17:32:37.631Z,72.82
2023-02-20T17:35:05.093Z,73.93
2023-02-20T17:37:34.302Z,73.97
2023-02-20T17:40:01.948Z,74.18
2023-02-20T17:42:29.068Z,73.55
2023-02-20T17:44:55.702Z,73.59
2023-02-20T17:47:23.235Z,73.69
2023-02-20T17:49:53.365Z,74.81
2023-02-20T17:52:20.537Z,74.48
2023-02-20T17:54:49.131Z,73.96
2023-02-20T17:57:20.983Z,74.34
2023-02-20T17:59:51.249Z,75.13
2023-02-20T18:02:18.943Z,75.32
2023-02-20T18:04:46.048Z,75.29
2023-02-20T18:07:14.017Z,75.52
2023-02-20T18:09:40.681Z,75.06
2023-02-20T18:12:07.935Z,74.95
2023-02-20T18:14:34.625Z,73.47
2023-02-20T18:17:01.444Z,73.68
2023-02-20T18:19:28.084Z,73.15
2023-02-20T18:21:54.796Z,72.33
2023-02-20T18:24:26.265Z,73.97
2023-02-20T18:26:54.298Z,73.10
2023-02-20T18:29:21.759Z,73.88
2023-02-20T18:31:49.723Z,73.13
2023-02-20T18:34:17.051Z,73.56
2023-02-20T18:36:43.850Z,73.04
2023-02-20T18:39:11.029Z,73.84
2023-02-20T18:41:37.990Z,73.60
2023-02-20T18:44:05.388Z,71.34
2023-02-20T18:46:34.575Z,71.31
2023-02-20T18:49:04.719Z,72.19
2023-02-20T18:51:34.581Z,73.00
2023-02-20T18:54:02.027Z,71.94
2023-02-20T18:56:28.624Z,72.72
2023-02-20T18:58:55.433Z,72.49
2023-02-20T19:01:23.248Z,72.52
2023-02-20T19:03:53.272Z,71.70
2023-02-20T19:06:40.646Z,71.92
2023-02-20T19:09:08.293Z,73.14
2023-02-20T19:11:34.857Z,72.67
2023-02-20T19:14:01.846Z,72.22
2023-02-20T19:16:28.689Z,72.34
2023-02-20T19:18:55.451Z,72.24
2023-02-20T19:21:22.610Z,71.31
2023-02-20T19:23:49.936Z,72.13
2023-02-20T19:26:16.745Z,70.88
2023-02-20T19:28:43.725Z,72.57
2023-02-20T19:31:12.158Z,72.95
2023-02-20T19:33:39.514Z,72.60
2023-02-20T19:36:09.873Z,72.57
2023-02-20T19:38:38.732Z,72.19
2023-02-20T19:41:05.581Z,72.48
2023-02-20T19:43:32.381Z,74.19
2023-02-20T19:45:59.251Z,74.58
2023-02-20T19:48:28.035Z,74.75
2023-02-20T19:50:56.171Z,74.51
2023-02-20T19:53:23.450Z,74.40
2023-02-20T19:55:54.283Z,73.38
2023-02-20T19:58:21.502Z,73.57
2023-02-20T20:00:48.182Z,73.77
2023-02-20T20:03:15.077Z,73.40
2023-02-20T20:05:41.715Z,73.43
2023-02-20T20:08:08.476Z,73.30
2023-02-20T20:10:35.400Z,72.91
2023-02-20T20:13:02.603Z,72.31
2023-02-20T20:15:29.568Z,72.27
2023-02-20T20:18:02.309Z,71.78
2023-02-20T20:20:31.875Z,72.31
2023-02-20T20:23:01.726Z,71.93
2023-02-20T20:25:28.472Z,72.48
2023-02-20T20:27:56.197Z,72.71
2023-02-20T20:30:26.065Z,72.91
2023-02-20T20:32:52.996Z,72.82
2023-02-20T20:35:22.044Z,71.24
2023-02-20T20:37:48.908Z,71.30
2023-02-20T20:40:16.995Z,72.26
2023-02-20T20:42:43.859Z,72.33
2023-02-20T20:45:12.571Z,71.61
2023-02-20T20:47:40.471Z,72.03
2023-02-20T20:50:07.238Z,72.21
2023-02-20T20:52:33.832Z,71.45
2023-02-20T20:55:04.518Z,71.18
2023-02-20T20:57:35.557Z,71.50
2023-02-20T21:00:05.716Z,71.21
2023-02-20T21:02:32.464Z,71.37
2023-02-20T21:05:09.754Z,71.34
2023-02-20T21:07:37.774Z,72.27
2023-02-20T21:10:04.710Z,72.46
2023-02-20T21:12:31.410Z,73.01
2023-02-20T21:14:58.071Z,71.94
2023-02-20T21:17:25.019Z,72.50
2023-02-20T21:19:51.650Z,71.78
2023-02-20T21:22:18.335Z,71.21
2023-02-20T21:24:45.060Z,71.36
2023-02-20T21:27:11.727Z,71.33
2023-02-20T21:29:38.331Z,71.25
2023-02-20T21:32:05.059Z,70.93
2023-02-20T21:34:31.723Z,71.36
2023-02-20T21:36:58.442Z,71.30
2023-02-20T21:39:25.138Z,71.74
2023-02-20T21:42:11.063Z,71.65
2023-02-20T21:44:39.631Z,71.89
2023-02-20T21:47:09.904Z,71.75
2023-02-20T21:49:43.022Z,72.26
2023-02-20T21:52:09.698Z,71.32
2023-02-20T21:54:36.344Z,71.44
2023-02-20T21:57:03.115Z,71.17
2023-02-20T21:59:29.630Z,71.90
2023-02-20T22:01:56.678Z,72.11
2023-02-20T22:04:24.642Z,72.15
2023-02-20T22:07:09.814Z,72.04
2023-02-20T22:09:55.213Z,70.61
2023-02-20T22:12:40.340Z,71.12
2023-02-20T22:15:26.316Z,71.67
2023-02-20T22:18:11.479Z,71.43
2023-02-20T22:20:56.949Z,70.88
2023-02-20T22:23:42.155Z,70.71
2023-02-20T22:26:27.580Z,70.98
2023-02-20T22:29:12.808Z,71.55
2023-02-20T22:31:58.209Z,72.30
2023-02-20T22:34:43.486Z,72.02
2023-02-20T22:37:28.689Z,71.68
2023-02-20T22:40:13.856Z,71.90
2023-02-20T22:42:59.130Z,71.48
2023-02-20T22:45:44.367Z,71.24
2023-02-20T22:48:29.689Z,72.06
2023-02-20T22:51:15.068Z,72.42
2023-02-20T22:54:00.485Z,71.34
2023-02-20T22:56:45.633Z,71.19
2023-02-20T22:59:30.877Z,71.36
2023-02-20T23:02:16.121Z,70.76
2023-02-20T23:05:01.521Z,71.11
2023-02-20T23:07:47.311Z,71.92
2023-02-20T23:10:32.674Z,71.47
2023-02-20T23:13:17.955Z,71.43
2023-02-20T23:16:03.304Z,71.66
2023-02-20T23:18:48.712Z,72.02
2023-02-20T23:21:34.549Z,72.06
2023-02-20T23:24:19.783Z,70.68
2023-02-20T23:27:10.148Z,71.18
2023-02-20T23:29:55.450Z,71.35
2023-02-20T23:32:41.014Z,71.13
2023-02-20T23:35:27.182Z,71.55
2023-02-20T23:38:12.557Z,71.61
2023-02-20T23:40:57.663Z,71.30
2023-02-20T23:43:42.885Z,71.93
2023-02-20T23:46:28.188Z,70.77
2023-02-20T23:49:13.524Z,70.62
2023-02-20T23:52:00.819Z,71.36
2023-02-20T23:54:50.188Z,72.07
2023-02-20T23:57:35.309Z,72.52
